Airfield :
LOGIN :

Register | Disclaimer

   EN    FR    IT 

 










Legend :    VFR   Marginal VFR   IFR   Intensive IFR   Very Intensive IFR
Visi :
Ceiling :
>= 8 km
>= 3000ft
5 to 8 km
1000 to 3000 ft
1500m to 5 km
500 to 1000 ft
800 to 1500m
200 to 500 ft
< 800m
< 200 ft
Symbols :   Thunderstorms  Fog  Heavy snow  Heavy precipitations  Wind > 20 kt
SIGMETs :     Misc.  Thunderstorms  Icing  Turbulence  Mountain Waves  Volcanic Ashes






- Airport Elevation : 404 ft
- IATA code : WRO


EPWR - Wroclaw

CURRENT METAR :
  • 240900Z 28017KT 9999 FEW023 BKN033 14/09 Q1013

EXPIRED METARs :
  • 240830Z 29017KT 9999 BKN026 13/08 Q1013
  • 240800Z 29018KT 9999 BKN026 13/08 Q1012
  • 240730Z 28017KT 9999 FEW030 BKN034 13/08 Q1012
  • 240700Z 28017KT 9999 FEW030 BKN037 13/07 Q1012
  • 240630Z 28016KT 9999 SCT030 BKN040 13/08 Q1012

TAF TAF EPWR
Valid from the 24 at 09:00 until the 25 at 09:00 UTC


240830Z 2409/2509 29018KT 9999 BKN030
TEMPO 2409/2414 28020G32KT
BECMG 2415/2418 26008KT



MET'MAP, your aeronautical weather chart ! - Copyright ORBIFLY December 2007 - Disclaimer

ORBIFLY MET'MAP TEAM :

Programming & Development : Alexandra Zaïnal
Concept & original design : Baudouin d'Aumeries
Assistance for programming : Marc-Olivier Méhu
Technical & hardware support : Manuel Goepfert

Contact : metmap@orbifly.com




SOURCES & CREDITS :

   NOAA